createdAt,value
2019-05-10T00:00:19.224Z,1002.4992
2019-05-10T00:00:31.057Z,1002.53
2019-05-10T00:01:30.265Z,1002.5231
2019-05-10T00:02:29.496Z,1002.4837
2019-05-10T00:03:29.725Z,1002.5013
2019-05-10T00:04:40.810Z,1002.5292
2019-05-10T00:05:29.244Z,1002.5524
2019-05-10T00:05:41.089Z,1002.5803
2019-05-10T00:06:40.345Z,1002.5592
2019-05-10T00:07:39.565Z,1002.5672
2019-05-10T00:08:50.634Z,1002.5402
2019-05-10T00:09:49.858Z,1002.557
2019-05-10T00:11:00.970Z,1002.5483
2019-05-10T00:12:00.226Z,1002.5262
2019-05-10T00:12:59.446Z,1002.5786
2019-05-10T00:13:11.291Z,1002.5637
2019-05-10T00:14:10.573Z,1002.5402
2019-05-10T00:15:09.788Z,1002.5596
2019-05-10T00:16:20.908Z,1002.536
2019-05-10T00:17:20.135Z,1002.5604
2019-05-10T00:18:19.355Z,1002.5551
2019-05-10T00:18:31.202Z,1002.5801
2019-05-10T00:19:30.430Z,1002.5714
2019-05-10T00:20:29.655Z,1002.5207
2019-05-10T00:21:40.768Z,1002.5293
2019-05-10T00:22:39.986Z,1002.4816
2019-05-10T00:23:40.213Z,1002.4631
2019-05-10T00:24:39.441Z,1002.437
2019-05-10T00:25:02.719Z,1002.4316
2019-05-10T00:25:39.772Z,1002.4448
2019-05-10T00:26:50.825Z,1002.5041
2019-05-10T00:27:50.049Z,1002.4745
2019-05-10T00:28:49.268Z,1002.4787
2019-05-10T00:29:01.109Z,1002.4479
2019-05-10T00:29:49.486Z,1002.477
2019-05-10T00:31:00.635Z,1002.4554
2019-05-10T00:31:59.848Z,1002.476
2019-05-10T00:33:10.914Z,1002.4195
2019-05-10T00:34:10.182Z,1002.4879
2019-05-10T00:35:09.379Z,1002.3988
2019-05-10T00:35:21.223Z,1002.4403
2019-05-10T00:36:20.473Z,1002.4855
2019-05-10T00:37:19.695Z,1002.4326
2019-05-10T00:38:30.801Z,1002.4428
2019-05-10T00:39:30.044Z,1002.4642
2019-05-10T00:40:29.265Z,1002.497
2019-05-10T00:40:41.115Z,1002.4822
2019-05-10T00:41:40.353Z,1002.4681
2019-05-10T00:42:39.638Z,1002.4698
2019-05-10T00:43:50.720Z,1002.4382
2019-05-10T00:44:49.928Z,1002.4728
2019-05-10T00:46:01.010Z,1002.4587
2019-05-10T00:47:00.260Z,1002.4927
2019-05-10T00:47:59.520Z,1002.455
2019-05-10T00:49:10.611Z,1002.4963
2019-05-10T00:50:09.810Z,1002.4559
2019-05-10T00:51:20.923Z,1002.5086
2019-05-10T00:52:20.285Z,1002.4846
2019-05-10T00:53:19.500Z,1002.4987
2019-05-10T00:54:19.735Z,1002.497
2019-05-10T00:55:30.785Z,1002.4989
2019-05-10T00:56:30.012Z,1002.5189
2019-05-10T00:57:29.293Z,1002.546
2019-05-10T00:57:41.139Z,1002.4966
2019-05-10T00:58:40.371Z,1002.5446
2019-05-10T00:59:39.613Z,1002.5111
2019-05-10T01:00:50.691Z,1002.5596
2019-05-10T01:01:49.943Z,1002.4938
2019-05-10T01:03:01.038Z,1002.4832
2019-05-10T01:04:00.296Z,1002.4693
2019-05-10T01:04:59.528Z,1002.5056
2019-05-10T01:06:10.575Z,1002.4943
2019-05-10T01:07:09.799Z,1002.5016
2019-05-10T01:08:10.061Z,1002.5363
2019-05-10T01:09:10.245Z,1002.5601
2019-05-10T01:10:09.458Z,1002.5397
2019-05-10T01:10:21.303Z,1002.5458
2019-05-10T01:11:20.530Z,1002.522
2019-05-10T01:12:20.742Z,1002.5236
2019-05-10T01:13:19.935Z,1002.5139
2019-05-10T01:14:19.295Z,1002.5278
2019-05-10T01:14:31.135Z,1002.546
2019-05-10T01:15:30.350Z,1002.5261
2019-05-10T01:16:29.568Z,1002.5477
2019-05-10T01:17:40.621Z,1002.5545
2019-05-10T01:18:39.855Z,1002.5982
2019-05-10T01:19:50.970Z,1002.6098
2019-05-10T01:20:50.206Z,1002.6676
2019-05-10T01:21:49.432Z,1002.6526
2019-05-10T01:22:01.275Z,1002.6328
2019-05-10T01:23:00.498Z,1002.6228
2019-05-10T01:23:59.719Z,1002.6607
2019-05-10T01:25:10.836Z,1002.6624
2019-05-10T01:26:10.079Z,1002.6697
2019-05-10T01:27:09.290Z,1002.6589
2019-05-10T01:27:21.192Z,1002.6951
2019-05-10T01:28:20.428Z,1002.7097
2019-05-10T01:29:19.674Z,1002.6038
2019-05-10T01:30:30.789Z,1002.6894
2019-05-10T01:31:30.037Z,1002.7215
2019-05-10T01:32:29.277Z,1002.6539
2019-05-10T01:32:41.119Z,1002.6774
2019-05-10T01:33:40.333Z,1002.6797
2019-05-10T01:34:39.581Z,1002.7084
2019-05-10T01:35:50.641Z,1002.6811
2019-05-10T01:36:49.853Z,1002.7467
2019-05-10T01:38:00.930Z,1002.6799
2019-05-10T01:39:00.168Z,1002.7595
2019-05-10T01:39:59.460Z,1002.7399
2019-05-10T01:40:11.311Z,1002.7338
2019-05-10T01:41:10.533Z,1002.7932
2019-05-10T01:42:09.767Z,1002.7965
2019-05-10T01:43:20.844Z,1002.7656
2019-05-10T01:44:20.073Z,1002.7734
2019-05-10T01:45:19.296Z,1002.7995
2019-05-10T01:45:31.138Z,1002.7807
2019-05-10T01:46:30.424Z,1002.8234
2019-05-10T01:47:29.613Z,1002.8492
2019-05-10T01:48:40.675Z,1002.8541
2019-05-10T01:49:39.914Z,1002.8261
2019-05-10T01:50:40.166Z,1002.8362
2019-05-10T01:51:39.405Z,1002.8783
2019-05-10T01:51:51.252Z,1002.8842
2019-05-10T01:52:50.479Z,1002.8778
2019-05-10T01:53:49.762Z,1002.8993
2019-05-10T01:55:00.765Z,1002.8771
2019-05-10T01:56:00.047Z,1002.8864
2019-05-10T01:56:59.289Z,1002.9087
2019-05-10T01:57:11.131Z,1002.8381
2019-05-10T01:58:10.369Z,1002.8972
2019-05-10T01:59:09.595Z,1002.912
2019-05-10T02:00:09.807Z,1002.8915
2019-05-10T02:01:20.888Z,1002.9475
2019-05-10T02:02:20.133Z,1002.9246
2019-05-10T02:03:19.374Z,1002.9486
2019-05-10T02:03:31.215Z,1002.9034
2019-05-10T02:04:30.426Z,1002.9216
2019-05-10T02:05:29.644Z,1002.9387
2019-05-10T02:06:40.796Z,1002.897
2019-05-10T02:07:40.033Z,1002.8869
2019-05-10T02:08:39.258Z,1002.9692
2019-05-10T02:08:51.103Z,1002.9611
2019-05-10T02:09:50.310Z,1002.9462
2019-05-10T02:10:49.528Z,1002.9088
2019-05-10T02:12:00.673Z,1002.8982
2019-05-10T02:12:59.902Z,1002.8881
2019-05-10T02:14:10.960Z,1002.8581
2019-05-10T02:15:10.211Z,1002.8611
2019-05-10T02:16:09.522Z,1002.8877
2019-05-10T02:17:20.572Z,1002.8928
2019-05-10T02:18:19.926Z,1002.9018
2019-05-10T02:19:30.974Z,1002.9326
2019-05-10T02:20:30.184Z,1002.8995
2019-05-10T02:21:29.393Z,1002.9352
2019-05-10T02:21:41.229Z,1002.9187
2019-05-10T02:22:40.452Z,1002.918
2019-05-10T02:23:39.799Z,1002.9252
2019-05-10T02:24:50.855Z,1002.9667
2019-05-10T02:25:50.046Z,1003.0079
2019-05-10T02:26:49.249Z,1002.9684
2019-05-10T02:27:01.088Z,1003.0111
2019-05-10T02:28:00.353Z,1002.974
2019-05-10T02:28:59.627Z,1002.9886
2019-05-10T02:30:10.679Z,1002.982
2019-05-10T02:31:09.863Z,1003.0018
2019-05-10T02:32:20.904Z,1003.0134
2019-05-10T02:33:20.126Z,1002.9909
2019-05-10T02:34:19.369Z,1002.9589
2019-05-10T02:34:31.304Z,1003.0304
2019-05-10T02:35:30.425Z,1003.025
2019-05-10T02:36:29.614Z,1003.0134
2019-05-10T02:37:40.663Z,1003.0349
2019-05-10T02:38:39.946Z,1003.0563
2019-05-10T02:39:50.997Z,1003.0074
2019-05-10T02:40:50.214Z,1003.0342
2019-05-10T02:41:49.417Z,1003.0119
2019-05-10T02:42:49.629Z,1003.0003
2019-05-10T02:44:00.711Z,1003.0374
2019-05-10T02:45:00.053Z,1003.0001
2019-05-10T02:46:10.999Z,1003.0323
2019-05-10T02:47:10.198Z,1003.0187
2019-05-10T02:48:09.414Z,1002.979
2019-05-10T02:48:21.284Z,1003.0072
2019-05-10T02:49:20.474Z,1003.0452
2019-05-10T02:50:19.662Z,1002.9909
2019-05-10T02:51:30.741Z,1003
2019-05-10T02:52:29.954Z,1003.0176
2019-05-10T02:53:41.023Z,1003.0034
2019-05-10T02:54:40.250Z,1003.0014
2019-05-10T02:55:39.614Z,1003.0532
2019-05-10T02:56:50.834Z,1003.0029
2019-05-10T02:57:50.053Z,1002.999
2019-05-10T02:58:49.277Z,1002.9846
2019-05-10T02:59:01.112Z,1003.0061
2019-05-10T03:00:00.367Z,1002.9838
2019-05-10T03:00:49.514Z,1003.0482
2019-05-10T03:01:49.697Z,1003.0391
2019-05-10T03:03:00.808Z,1003.0162
2019-05-10T03:04:00.027Z,1003.055
2019-05-10T03:05:00.236Z,1003.0778
2019-05-10T03:05:59.775Z,1003.0647
2019-05-10T03:07:00.645Z,1003.0708
2019-05-10T03:07:49.347Z,1003.0668
2019-05-10T03:08:50.084Z,1003.1076
2019-05-10T03:09:51.038Z,1003.0582
2019-05-10T03:10:50.334Z,1003.1179
2019-05-10T03:11:50.930Z,1003.0862
2019-05-10T03:12:50.942Z,1003.0946
2019-05-10T03:13:40.062Z,1003.1386
2019-05-10T03:14:51.101Z,1003.1037
2019-05-10T03:15:50.524Z,1003.1325
2019-05-10T03:16:49.932Z,1003.14
2019-05-10T03:18:01.040Z,1003.1817
2019-05-10T03:18:49.473Z,1003.1564
2019-05-10T03:19:01.313Z,1003.1951
2019-05-10T03:20:00.949Z,1003.2165
2019-05-10T03:20:50.083Z,1003.1804
2019-05-10T03:21:40.389Z,1003.184
2019-05-10T03:22:19.926Z,1003.1994
2019-05-10T03:23:10.119Z,1003.2623
2019-05-10T03:24:09.480Z,1003.2908
2019-05-10T03:24:21.372Z,1003.2668
2019-05-10T03:25:20.604Z,1003.3088
2019-05-10T03:26:19.890Z,1003.3254
2019-05-10T03:27:19.271Z,1003.3875
2019-05-10T03:27:31.144Z,1003.3931
2019-05-10T03:28:30.424Z,1003.3962
2019-05-10T03:29:29.654Z,1003.4503
2019-05-10T03:30:40.705Z,1003.3778
2019-05-10T03:31:39.985Z,1003.4026
2019-05-10T03:32:39.284Z,1003.3973
2019-05-10T03:32:51.178Z,1003.4273
2019-05-10T03:33:55.993Z,1003.466
2019-05-10T03:34:50.630Z,1003.4403
2019-05-10T03:35:49.830Z,1003.3973
2019-05-10T03:37:00.901Z,1003.4123
2019-05-10T03:38:00.160Z,1003.394
2019-05-10T03:38:59.375Z,1003.4396
2019-05-10T03:39:11.213Z,1003.4371
2019-05-10T03:40:10.531Z,1003.4319
2019-05-10T03:41:09.744Z,1003.4851
2019-05-10T03:42:20.871Z,1003.4684
2019-05-10T03:43:20.113Z,1003.4999
2019-05-10T03:44:19.401Z,1003.4996
2019-05-10T03:44:31.242Z,1003.4927
2019-05-10T03:45:30.540Z,1003.5031
2019-05-10T03:46:29.796Z,1003.5064
2019-05-10T03:47:40.914Z,1003.5187
2019-05-10T03:48:40.070Z,1003.5237
2019-05-10T03:49:39.426Z,1003.5229
2019-05-10T03:50:39.719Z,1003.5131
2019-05-10T03:51:50.785Z,1003.5312
2019-05-10T03:52:52.163Z,1003.5756
2019-05-10T03:53:50.215Z,1003.5839
2019-05-10T03:54:49.494Z,1003.5783
2019-05-10T03:56:00.629Z,1003.6182
2019-05-10T03:57:11.597Z,1003.671
2019-05-10T03:58:00.067Z,1003.6328
2019-05-10T03:58:59.278Z,1003.6805
2019-05-10T03:59:11.118Z,1003.669
2019-05-10T04:00:10.426Z,1003.6591
2019-05-10T04:01:09.643Z,1003.7169
2019-05-10T04:02:20.714Z,1003.7117
2019-05-10T04:03:20.904Z,1003.7225
2019-05-10T04:04:20.180Z,1003.7359
2019-05-10T04:05:19.426Z,1003.7705
2019-05-10T04:05:31.266Z,1003.7331
2019-05-10T04:06:30.485Z,1003.7656
2019-05-10T04:07:29.705Z,1003.76
2019-05-10T04:08:40.754Z,1003.8279
2019-05-10T04:09:39.962Z,1003.7957
2019-05-10T04:10:39.277Z,1003.8654
2019-05-10T04:10:51.124Z,1003.8911
2019-05-10T04:11:50.342Z,1003.9393
2019-05-10T04:12:49.659Z,1003.8644
2019-05-10T04:13:49.866Z,1003.9656
2019-05-10T04:15:00.929Z,1003.9162
2019-05-10T04:16:00.225Z,1003.9122
2019-05-10T04:16:59.435Z,1003.9445
2019-05-10T04:17:11.332Z,1003.9652
2019-05-10T04:18:10.539Z,1003.9584
2019-05-10T04:19:09.768Z,1003.9823
2019-05-10T04:20:20.862Z,1003.9779
2019-05-10T04:21:20.189Z,1003.9948
2019-05-10T04:22:19.423Z,1004.036
2019-05-10T04:22:31.272Z,1004.0052
2019-05-10T04:23:30.540Z,1004.0415
2019-05-10T04:24:29.781Z,1004.0548
2019-05-10T04:25:40.842Z,1004.0741
2019-05-10T04:26:40.098Z,1004.1135
2019-05-10T04:27:39.368Z,1004.1329
2019-05-10T04:27:51.212Z,1004.1171
2019-05-10T04:28:50.426Z,1004.1273
2019-05-10T04:29:50.661Z,1004.13
2019-05-10T04:30:49.883Z,1004.1213
2019-05-10T04:32:01.022Z,1004.2324
2019-05-10T04:33:00.393Z,1004.2238
2019-05-10T04:33:59.487Z,1004.25
2019-05-10T04:34:11.330Z,1004.2335
2019-05-10T04:35:10.566Z,1004.2025
2019-05-10T04:36:12.496Z,1004.2156
2019-05-10T04:37:10.087Z,1004.2509
2019-05-10T04:38:09.366Z,1004.2626
2019-05-10T04:38:21.299Z,1004.2838
2019-05-10T04:39:20.558Z,1004.232
2019-05-10T04:40:19.765Z,1004.2706
2019-05-10T04:41:30.947Z,1004.3175
2019-05-10T04:42:30.229Z,1004.2474
2019-05-10T04:43:29.451Z,1004.2492
2019-05-10T04:43:41.284Z,1004.2349
2019-05-10T04:44:40.576Z,1004.3096
2019-05-10T04:45:39.845Z,1004.2824
2019-05-10T04:46:50.981Z,1004.2659
2019-05-10T04:47:39.447Z,1004.2912
2019-05-10T04:47:51.292Z,1004.3015
2019-05-10T04:48:50.523Z,1004.2982
2019-05-10T04:49:49.787Z,1004.3951
2019-05-10T04:51:00.905Z,1004.4428
2019-05-10T04:52:00.261Z,1004.4442
2019-05-10T04:52:59.497Z,1004.4721
2019-05-10T04:54:10.637Z,1004.505
2019-05-10T04:55:09.875Z,1004.5496
2019-05-10T04:56:20.930Z,1004.4987
2019-05-10T04:57:20.273Z,1004.507
2019-05-10T04:58:19.536Z,1004.5465
2019-05-10T04:59:30.588Z,1004.4896
2019-05-10T05:00:29.899Z,1004.5253
2019-05-10T05:01:41.017Z,1004.5241
2019-05-10T05:02:40.292Z,1004.559
2019-05-10T05:03:39.573Z,1004.5596
2019-05-10T05:04:50.686Z,1004.5739
2019-05-10T05:05:49.934Z,1004.5798
2019-05-10T05:07:01.005Z,1004.5692
2019-05-10T05:08:00.271Z,1004.6007
2019-05-10T05:08:59.626Z,1004.6143
2019-05-10T05:10:10.680Z,1004.5865
2019-05-10T05:11:09.934Z,1004.5971
2019-05-10T05:12:21.063Z,1004.6193
2019-05-10T05:13:20.314Z,1004.6295
2019-05-10T05:14:19.600Z,1004.6193
2019-05-10T05:15:30.694Z,1004.6391
2019-05-10T05:16:30.885Z,1004.7249
2019-05-10T05:17:30.156Z,1004.7265
2019-05-10T05:18:29.553Z,1004.6613
2019-05-10T05:19:41.097Z,1004.6812
2019-05-10T05:20:39.878Z,1004.757
2019-05-10T05:21:51.019Z,1004.7603
2019-05-10T05:22:50.226Z,1004.7484
2019-05-10T05:23:49.482Z,1004.7609
2019-05-10T05:24:01.330Z,1004.7807
2019-05-10T05:25:01.520Z,1004.7713
2019-05-10T05:26:00.762Z,1004.7701
2019-05-10T05:27:00.028Z,1004.808
2019-05-10T05:28:07.752Z,1004.7639
2019-05-10T05:28:59.517Z,1004.835
2019-05-10T05:30:10.634Z,1004.8332
2019-05-10T05:31:09.971Z,1004.8492
2019-05-10T05:32:21.036Z,1004.8353
2019-05-10T05:33:20.260Z,1004.8668
2019-05-10T05:34:19.507Z,1004.8909
2019-05-10T05:35:30.595Z,1004.887
2019-05-10T05:36:29.881Z,1004.8803
2019-05-10T05:37:40.966Z,1004.8632
2019-05-10T05:38:46.342Z,1004.8955
2019-05-10T05:39:40.484Z,1004.9087
2019-05-10T05:40:39.692Z,1004.9157
2019-05-10T05:41:51.804Z,1004.9223
2019-05-10T05:42:39.246Z,1004.9107
2019-05-10T05:42:51.091Z,1004.9054
2019-05-10T05:43:50.291Z,1004.9573
2019-05-10T05:44:49.671Z,1004.894
2019-05-10T05:45:49.874Z,1004.9465
2019-05-10T05:47:04.299Z,1004.9445
2019-05-10T05:47:49.522Z,1004.902
2019-05-10T05:49:00.595Z,1004.921
2019-05-10T05:49:59.811Z,1004.9416
2019-05-10T05:51:10.902Z,1004.9122
2019-05-10T05:52:10.119Z,1005.0004
2019-05-10T05:53:09.538Z,1005.0095
2019-05-10T05:54:22.574Z,1004.9765
2019-05-10T05:55:23.008Z,1005.0368
2019-05-10T05:56:21.019Z,1005.0264
2019-05-10T05:57:22.098Z,1005.0362
2019-05-10T05:58:26.387Z,1005.0871
2019-05-10T05:59:23.588Z,1005.1112
2019-05-10T06:00:20.915Z,1005.1187
2019-05-10T06:01:25.989Z,1005.1121
2019-05-10T06:02:20.432Z,1005.1214
2019-05-10T06:03:27.434Z,1005.1899
2019-05-10T06:04:19.833Z,1005.1718
2019-05-10T06:05:36.707Z,1005.2064
2019-05-10T06:06:23.553Z,1005.1609
2019-05-10T06:07:20.674Z,1005.2092
2019-05-10T06:08:24.903Z,1005.1802
2019-05-10T06:09:20.083Z,1005.2023
2019-05-10T06:10:19.752Z,1005.2404
2019-05-10T06:10:31.114Z,1005.1631
2019-05-10T06:11:35.652Z,1005.2156
2019-05-10T06:12:30.543Z,1005.2036
2019-05-10T06:13:30.727Z,1005.2132
2019-05-10T06:14:29.973Z,1005.2504
2019-05-10T06:15:41.051Z,1005.2828
2019-05-10T06:16:44.822Z,1005.3004
2019-05-10T06:17:40.484Z,1005.2995
2019-05-10T06:18:41.503Z,1005.3337
2019-05-10T06:19:39.989Z,1005.3465
2019-05-10T06:20:44.311Z,1005.3519
2019-05-10T06:21:39.448Z,1005.3482
2019-05-10T06:21:51.298Z,1005.3645
2019-05-10T06:23:05.493Z,1005.3874
2019-05-10T06:23:50.704Z,1005.3509
2019-05-10T06:24:52.323Z,1005.4263
2019-05-10T06:25:50.470Z,1005.3953
2019-05-10T06:26:49.752Z,1005.4302
2019-05-10T06:28:00.854Z,1005.4209
2019-05-10T06:29:04.028Z,1005.4436
2019-05-10T06:30:00.439Z,1005.4514
2019-05-10T06:30:59.667Z,1005.4679
2019-05-10T06:32:10.787Z,1005.5148
2019-05-10T06:33:12.494Z,1005.5346
2019-05-10T06:34:10.278Z,1005.5629
2019-05-10T06:35:13.996Z,1005.5541
2019-05-10T06:36:09.814Z,1005.5268
2019-05-10T06:37:20.907Z,1005.5257
2019-05-10T06:38:20.165Z,1005.5812
2019-05-10T06:39:19.399Z,1005.5376
2019-05-10T06:39:31.242Z,1005.5617
2019-05-10T06:40:37.464Z,1005.5539
2019-05-10T06:41:32.610Z,1005.6207
2019-05-10T06:42:19.287Z,1005.6278
2019-05-10T06:42:34.537Z,1005.6143
2019-05-10T06:43:19.623Z,1005.7058
2019-05-10T06:44:31.443Z,1005.6965
2019-05-10T06:45:30.893Z,1005.7232
2019-05-10T06:46:23.509Z,1005.7008
2019-05-10T06:47:21.753Z,1005.7412
2019-05-10T06:48:26.686Z,1005.7517
2019-05-10T06:49:20.058Z,1005.7229
2019-05-10T06:50:28.502Z,1005.6876
2019-05-10T06:51:20.094Z,1005.741
2019-05-10T06:52:21.731Z,1005.7995
2019-05-10T06:53:22.738Z,1005.8012
2019-05-10T06:54:19.786Z,1005.8463
2019-05-10T06:55:30.928Z,1005.796
2019-05-10T06:56:19.339Z,1005.8153
2019-05-10T06:56:31.302Z,1005.8417
2019-05-10T06:57:30.587Z,1005.8015
2019-05-10T06:58:30.421Z,1005.8394
2019-05-10T06:59:40.901Z,1005.8557
2019-05-10T07:00:44.560Z,1005.8658
2019-05-10T07:01:45.117Z,1005.887
2019-05-10T07:02:40.681Z,1005.9037
2019-05-10T07:03:51.012Z,1005.9263
2019-05-10T07:04:50.995Z,1005.954
2019-05-10T07:05:49.864Z,1005.9503
2019-05-10T07:07:01.166Z,1005.9556
2019-05-10T07:08:13.064Z,1005.9774
2019-05-10T07:09:00.700Z,1005.9508
2019-05-10T07:10:04.465Z,1005.992
2019-05-10T07:11:00.217Z,1006.0443
2019-05-10T07:11:59.442Z,1006.0119
2019-05-10T07:12:15.125Z,1005.9857
2019-05-10T07:13:03.376Z,1005.9995
2019-05-10T07:14:00.090Z,1006.0011
2019-05-10T07:15:03.207Z,1006.0306
2019-05-10T07:15:59.700Z,1006.0502
2019-05-10T07:17:10.941Z,1006.0566
2019-05-10T07:18:10.245Z,1006.0452
2019-05-10T07:19:10.475Z,1006.1094
2019-05-10T07:20:09.753Z,1006.1203
2019-05-10T07:21:20.836Z,1006.1351
2019-05-10T07:22:21.527Z,1006.1507
2019-05-10T07:23:20.702Z,1006.1773
2019-05-10T07:24:24.846Z,1006.2476
2019-05-10T07:25:20.638Z,1006.1906
2019-05-10T07:26:23.695Z,1006.2349
2019-05-10T07:27:20.129Z,1006.2968
2019-05-10T07:28:19.456Z,1006.314
2019-05-10T07:28:31.305Z,1006.2932
2019-05-10T07:29:35.951Z,1006.2753
2019-05-10T07:30:30.839Z,1006.2996
2019-05-10T07:31:30.064Z,1006.3364
2019-05-10T07:32:29.420Z,1006.3511
2019-05-10T07:33:40.693Z,1006.4688
2019-05-10T07:34:39.967Z,1006.4275
2019-05-10T07:35:39.271Z,1006.4912
2019-05-10T07:35:51.120Z,1006.4987
2019-05-10T07:36:50.382Z,1006.5236
2019-05-10T07:37:51.717Z,1006.6004
2019-05-10T07:38:49.902Z,1006.6099
2019-05-10T07:39:49.221Z,1006.6045
2019-05-10T07:40:03.338Z,1006.6076
2019-05-10T07:40:49.522Z,1006.6429
2019-05-10T07:42:06.449Z,1006.6836
2019-05-10T07:43:00.929Z,1006.6834
2019-05-10T07:44:07.156Z,1006.7195
2019-05-10T07:45:00.575Z,1006.7407
2019-05-10T07:46:06.020Z,1006.7681
2019-05-10T07:47:00.275Z,1006.8568
2019-05-10T07:48:02.257Z,1006.8461
2019-05-10T07:49:00.026Z,1006.8479
2019-05-10T07:50:03.754Z,1006.801
2019-05-10T07:50:59.561Z,1006.8306
2019-05-10T07:52:01.994Z,1006.8672
2019-05-10T07:53:00.295Z,1006.8686
2019-05-10T07:54:04.437Z,1006.9385
2019-05-10T07:55:00.177Z,1006.9232
2019-05-10T07:55:59.768Z,1006.9318
2019-05-10T07:56:11.304Z,1006.9774
2019-05-10T07:57:10.828Z,1007.0079
2019-05-10T07:58:10.249Z,1007.0114
2019-05-10T07:59:09.576Z,1007.0681
2019-05-10T08:00:20.801Z,1007.0784
2019-05-10T08:01:28.597Z,1007.0859
2019-05-10T08:02:20.631Z,1007.1539
2019-05-10T08:03:23.609Z,1007.1754
2019-05-10T08:04:28.717Z,1007.1981
2019-05-10T08:05:20.387Z,1007.2204
2019-05-10T08:06:19.594Z,1007.1891
2019-05-10T08:07:30.833Z,1007.2034
2019-05-10T08:08:30.091Z,1007.1896
2019-05-10T08:09:31.588Z,1007.2355
2019-05-10T08:10:29.677Z,1007.187
2019-05-10T08:11:40.947Z,1007.2283
2019-05-10T08:12:44.347Z,1007.1835
2019-05-10T08:13:40.604Z,1007.2104
2019-05-10T08:14:44.362Z,1007.2313
2019-05-10T08:15:40.146Z,1007.2355
2019-05-10T08:16:39.509Z,1007.2691
2019-05-10T08:17:51.026Z,1007.2995
2019-05-10T08:18:50.103Z,1007.294
2019-05-10T08:19:50.284Z,1007.3105
2019-05-10T08:20:54.658Z,1007.319
2019-05-10T08:21:55.229Z,1007.3701
2019-05-10T08:22:52.383Z,1007.3565
2019-05-10T08:23:51.855Z,1007.3984
2019-05-10T08:24:52.570Z,1007.3873
2019-05-10T08:25:41.627Z,1007.3861
2019-05-10T08:26:42.443Z,1007.4223
2019-05-10T08:27:41.890Z,1007.457
2019-05-10T08:28:44.409Z,1007.4439
2019-05-10T08:29:42.877Z,1007.4568
2019-05-10T08:30:29.439Z,1007.5178
2019-05-10T08:30:51.135Z,1007.5536
2019-05-10T08:31:31.718Z,1007.4776
2019-05-10T08:32:32.652Z,1007.5452
2019-05-10T08:33:32.293Z,1007.5159
2019-05-10T08:34:35.192Z,1007.5423
2019-05-10T08:35:32.764Z,1007.5393
2019-05-10T08:36:32.147Z,1007.5664
2019-05-10T08:37:28.654Z,1007.6018
2019-05-10T08:38:21.655Z,1007.6309
2019-05-10T08:39:22.103Z,1007.594
2019-05-10T08:40:25.824Z,1007.6614
2019-05-10T08:41:22.311Z,1007.6397
2019-05-10T08:42:35.348Z,1007.6265
2019-05-10T08:43:12.783Z,1007.6774
2019-05-10T08:44:16.423Z,1007.7301
2019-05-10T08:45:12.291Z,1007.7216
2019-05-10T08:46:11.945Z,1007.7332
2019-05-10T08:47:13.416Z,1007.7337
2019-05-10T08:48:12.679Z,1007.7647
2019-05-10T08:49:01.828Z,1007.7225
2019-05-10T08:50:15.750Z,1007.7591
2019-05-10T08:51:03.903Z,1007.8165
2019-05-10T08:52:00.169Z,1007.8195
2019-05-10T08:53:02.126Z,1007.832
2019-05-10T08:54:01.602Z,1007.8693
2019-05-10T08:55:02.475Z,1007.9234
2019-05-10T08:56:02.075Z,1007.9031
2019-05-10T08:57:04.672Z,1007.9061
2019-05-10T08:58:02.900Z,1007.9465
2019-05-10T08:58:49.335Z,1007.9226
2019-05-10T08:59:03.766Z,1007.9639
2019-05-10T08:59:54.018Z,1007.9439
2019-05-10T09:00:57.583Z,1008.0062
2019-05-10T09:01:51.370Z,1007.9807
2019-05-10T09:02:52.022Z,1008.0418
2019-05-10T09:03:52.754Z,1007.9534
2019-05-10T09:04:42.649Z,1008.055
2019-05-10T09:05:40.168Z,1008.0979
2019-05-10T09:06:42.002Z,1008.111
2019-05-10T09:07:40.302Z,1008.0996
2019-05-10T09:08:39.514Z,1008.0909
2019-05-10T09:09:52.965Z,1008.096
2019-05-10T09:10:52.901Z,1008.199
2019-05-10T09:11:43.740Z,1008.1126
2019-05-10T09:12:41.594Z,1008.1428
2019-05-10T09:13:42.182Z,1008.1358
2019-05-10T09:14:42.569Z,1008.1445
2019-05-10T09:15:51.139Z,1008.212
2019-05-10T09:16:35.861Z,1008.2603
2019-05-10T09:17:32.321Z,1008.2247
2019-05-10T09:18:30.319Z,1008.2634
2019-05-10T09:19:37.101Z,1008.2703
2019-05-10T09:20:31.783Z,1008.2874
2019-05-10T09:21:32.137Z,1008.2614
2019-05-10T09:22:33.393Z,1008.2586
2019-05-10T09:23:32.432Z,1008.2346
2019-05-10T09:24:32.442Z,1008.2968
2019-05-10T09:25:20.064Z,1008.2691
2019-05-10T09:26:32.178Z,1008.3602
2019-05-10T09:27:19.334Z,1008.3186
2019-05-10T09:27:33.272Z,1008.298
2019-05-10T09:28:21.667Z,1008.2867
2019-05-10T09:29:21.884Z,1008.3576
2019-05-10T09:30:21.963Z,1008.3295
2019-05-10T09:31:22.532Z,1008.3598
2019-05-10T09:32:28.515Z,1008.3665
2019-05-10T09:33:11.267Z,1008.3379
2019-05-10T09:34:12.221Z,1008.3656
2019-05-10T09:35:12.690Z,1008.3951
2019-05-10T09:36:12.404Z,1008.4368
2019-05-10T09:36:59.438Z,1008.4165
2019-05-10T09:37:14.130Z,1008.4274
2019-05-10T09:38:01.751Z,1008.4445
2019-05-10T09:38:59.976Z,1008.4021
2019-05-10T09:40:05.237Z,1008.4043
2019-05-10T09:40:59.433Z,1008.4142
2019-05-10T09:41:11.860Z,1008.4598
2019-05-10T09:42:18.849Z,1008.4266
2019-05-10T09:43:12.422Z,1008.4489
2019-05-10T09:43:59.236Z,1008.458
2019-05-10T09:44:13.011Z,1008.434
2019-05-10T09:45:02.761Z,1008.4565
2019-05-10T09:46:02.660Z,1008.417
2019-05-10T09:47:01.875Z,1008.4651
2019-05-10T09:47:49.285Z,1008.4104
2019-05-10T09:48:02.437Z,1008.4489
2019-05-10T09:48:54.374Z,1008.4437
2019-05-10T09:49:53.846Z,1008.4748
2019-05-10T09:50:52.673Z,1008.479
2019-05-10T09:51:52.499Z,1008.5198
2019-05-10T09:52:50.659Z,1008.4991
2019-05-10T09:53:49.908Z,1008.4464
2019-05-10T09:55:03.906Z,1008.5509
2019-05-10T09:55:52.135Z,1008.5868
2019-05-10T09:56:52.164Z,1008.5943
2019-05-10T09:57:49.923Z,1008.6082
2019-05-10T09:59:01.062Z,1008.6359
2019-05-10T10:00:00.394Z,1008.6491
2019-05-10T10:01:13.198Z,1008.6505
2019-05-10T10:02:00.058Z,1008.669
2019-05-10T10:03:01.789Z,1008.7243
2019-05-10T10:04:01.933Z,1008.6673
2019-05-10T10:05:00.138Z,1008.7565
2019-05-10T10:06:05.803Z,1008.7493
2019-05-10T10:08:03.551Z,1008.799
2019-05-10T10:08:53.237Z,1008.7943
2019-05-10T10:09:49.618Z,1008.8223
2019-05-10T10:11:10.136Z,1008.8215
2019-05-10T10:12:02.985Z,1008.8325
2019-05-10T10:12:49.367Z,1008.7999
2019-05-10T10:13:08.296Z,1008.8596
2019-05-10T10:13:58.456Z,1008.862
2019-05-10T10:14:49.791Z,1008.8549
2019-05-10T10:16:03.885Z,1008.8234
2019-05-10T10:16:58.137Z,1008.8176
2019-05-10T10:17:49.468Z,1008.8729
2019-05-10T10:18:01.299Z,1008.8521
2019-05-10T10:19:00.560Z,1008.7715
2019-05-10T10:19:59.786Z,1008.921
2019-05-10T10:21:13.108Z,1008.8944
2019-05-10T10:21:59.243Z,1008.9567
2019-05-10T10:22:13.129Z,1008.9435
2019-05-10T10:23:00.498Z,1008.9218
2019-05-10T10:24:00.323Z,1008.9065
2019-05-10T10:25:10.882Z,1008.926
2019-05-10T10:26:12.463Z,1008.9238
2019-05-10T10:27:10.513Z,1008.8922
2019-05-10T10:28:16.837Z,1008.7926
2019-05-10T10:29:09.933Z,1008.8756
2019-05-10T10:30:21.603Z,1008.9304
2019-05-10T10:31:29.005Z,1009.01
2019-05-10T10:32:24.549Z,1008.9768
2019-05-10T10:33:25.261Z,1009.015
2019-05-10T10:34:09.361Z,1009.0745
2019-05-10T10:34:21.202Z,1009.0349
2019-05-10T10:35:26.218Z,1009.0712
2019-05-10T10:36:20.735Z,1009.0499
2019-05-10T10:37:24.085Z,1009.0962
2019-05-10T10:38:20.162Z,1009.0622
2019-05-10T10:39:22.770Z,1009.067
2019-05-10T10:40:19.651Z,1009.155
2019-05-10T10:41:31.669Z,1009.1026
2019-05-10T10:42:30.980Z,1009.1649
2019-05-10T10:43:30.303Z,1009.1854